createdAt,value
2023-03-10T00:01:25.018Z,99751.34
2023-03-10T00:03:54.746Z,99752.41
2023-03-10T00:06:25.560Z,99755.47
2023-03-10T00:08:54.408Z,99770.47
2023-03-10T00:11:23.598Z,99775.91
2023-03-10T00:13:51.997Z,99772.16
2023-03-10T00:16:26.924Z,99773.53
2023-03-10T00:18:55.974Z,99781.69
2023-03-10T00:21:30.755Z,99781.06
2023-03-10T00:24:00.126Z,99788.00
2023-03-10T00:26:29.987Z,99781.78
2023-03-10T00:28:58.528Z,99784.69
2023-03-10T00:31:28.709Z,99793.16
2023-03-10T00:33:58.227Z,99792.97
2023-03-10T00:36:29.337Z,99800.66
2023-03-10T00:39:01.805Z,99802.78
2023-03-10T00:41:32.300Z,99810.78
2023-03-10T00:44:01.913Z,99801.28
2023-03-10T00:46:34.031Z,99803.69
2023-03-10T00:49:02.324Z,99802.53
2023-03-10T00:51:30.635Z,99808.72
2023-03-10T00:54:00.231Z,99815.16
2023-03-10T00:56:29.589Z,99818.38
2023-03-10T00:59:00.944Z,99819.72
2023-03-10T01:01:30.552Z,99817.00
2023-03-10T01:04:01.377Z,99824.25
2023-03-10T01:06:29.984Z,99827.91
2023-03-10T01:08:58.301Z,99823.94
2023-03-10T01:11:28.737Z,99829.59
2023-03-10T01:14:03.221Z,99831.25
2023-03-10T01:16:32.296Z,99834.91
2023-03-10T01:19:01.258Z,99841.63
2023-03-10T01:21:32.828Z,99839.97
2023-03-10T01:24:02.145Z,99833.72
2023-03-10T01:26:31.369Z,99829.78
2023-03-10T01:28:59.855Z,99829.38
2023-03-10T01:31:28.239Z,99823.84
2023-03-10T01:33:56.570Z,99825.50
2023-03-10T01:36:27.462Z,99820.25
2023-03-10T01:38:57.503Z,99825.44
2023-03-10T01:41:26.340Z,99830.59
2023-03-10T01:43:58.994Z,99827.91
2023-03-10T01:46:36.407Z,99825.44
2023-03-10T01:49:14.203Z,99826.28
2023-03-10T01:51:47.046Z,99827.09
2023-03-10T01:54:21.717Z,99833.59
2023-03-10T01:56:53.921Z,99837.97
2023-03-10T01:59:23.559Z,99849.00
2023-03-10T02:01:53.859Z,99846.28
2023-03-10T02:04:49.504Z,99849.44
2023-03-10T02:07:22.529Z,99849.47
2023-03-10T02:09:53.654Z,99848.00
2023-03-10T02:12:22.372Z,99854.19
2023-03-10T02:14:53.147Z,99862.66
2023-03-10T02:17:24.400Z,99855.09
2023-03-10T02:19:59.883Z,99864.31
2023-03-10T02:22:28.703Z,99868.44
2023-03-10T02:25:17.096Z,99863.66
2023-03-10T02:27:45.634Z,99864.22
2023-03-10T02:30:28.943Z,99857.16
2023-03-10T02:33:01.919Z,99851.09
2023-03-10T02:35:32.443Z,99849.09
2023-03-10T02:38:00.965Z,99859.34
2023-03-10T02:40:44.157Z,99852.81
2023-03-10T02:43:35.902Z,99854.63
2023-03-10T02:46:08.727Z,99848.06
2023-03-10T02:48:39.897Z,99847.63
2023-03-10T02:51:14.875Z,99849.22
2023-03-10T02:53:44.005Z,99848.50
2023-03-10T02:56:12.846Z,99837.31
2023-03-10T02:58:41.580Z,99834.81
2023-03-10T03:01:10.110Z,99817.50
2023-03-10T03:03:39.098Z,99829.78
2023-03-10T03:06:07.977Z,99822.94
2023-03-10T03:08:36.520Z,99832.13
2023-03-10T03:11:05.194Z,99824.75
2023-03-10T03:13:33.521Z,99827.59
2023-03-10T03:16:02.015Z,99825.84
2023-03-10T03:18:30.372Z,99831.47
2023-03-10T03:20:58.654Z,99818.47
2023-03-10T03:23:26.946Z,99820.28
2023-03-10T03:25:55.240Z,99815.69
2023-03-10T03:28:23.544Z,99818.50
2023-03-10T03:30:51.825Z,99800.13
2023-03-10T03:33:20.151Z,99803.97
2023-03-10T03:35:48.554Z,99802.69
2023-03-10T03:38:17.100Z,99793.78
2023-03-10T03:40:46.461Z,99792.50
2023-03-10T03:43:15.644Z,99791.22
2023-03-10T03:45:43.953Z,99790.19
2023-03-10T03:48:15.523Z,99782.25
2023-03-10T03:50:43.863Z,99778.41
2023-03-10T03:53:12.158Z,99788.34
2023-03-10T03:55:40.486Z,99775.06
2023-03-10T03:58:08.837Z,99776.06
2023-03-10T04:00:37.148Z,99768.38
2023-03-10T04:03:06.235Z,99757.59
2023-03-10T04:05:34.803Z,99755.56
2023-03-10T04:08:03.150Z,99750.91
2023-03-10T04:10:31.658Z,99745.00
2023-03-10T04:13:00.112Z,99745.75
2023-03-10T04:15:28.527Z,99736.78
2023-03-10T04:17:58.825Z,99736.00
2023-03-10T04:20:27.560Z,99731.88
2023-03-10T04:22:55.874Z,99724.38
2023-03-10T04:25:24.236Z,99723.31
2023-03-10T04:27:52.540Z,99717.91
2023-03-10T04:30:22.006Z,99716.81
2023-03-10T04:32:50.351Z,99702.16
2023-03-10T04:35:18.819Z,99692.91
2023-03-10T04:37:47.183Z,99688.25
2023-03-10T04:40:16.586Z,99684.31
2023-03-10T04:42:44.893Z,99678.09
2023-03-10T04:45:13.770Z,99673.47
2023-03-10T04:47:42.115Z,99663.13
2023-03-10T04:50:12.358Z,99663.06
2023-03-10T04:52:40.824Z,99660.41
2023-03-10T04:55:09.592Z,99649.31
2023-03-10T04:57:37.866Z,99646.66
2023-03-10T05:00:08.952Z,99643.22
2023-03-10T05:02:38.527Z,99638.28
2023-03-10T05:05:07.479Z,99629.00
2023-03-10T05:07:35.865Z,99621.53
2023-03-10T05:10:04.990Z,99622.78
2023-03-10T05:12:33.346Z,99622.69
2023-03-10T05:15:01.745Z,99614.69
2023-03-10T05:17:31.173Z,99612.31
2023-03-10T05:19:59.818Z,99605.63
2023-03-10T05:22:28.180Z,99596.53
2023-03-10T05:24:56.468Z,99596.00
2023-03-10T05:27:25.557Z,99588.22
2023-03-10T05:29:53.895Z,99586.59
2023-03-10T05:32:22.336Z,99578.56
2023-03-10T05:34:50.674Z,99573.91
2023-03-10T05:37:19.599Z,99563.09
2023-03-10T05:39:47.935Z,99566.91
2023-03-10T05:42:16.253Z,99557.13
2023-03-10T05:44:44.568Z,99543.25
2023-03-10T05:47:14.988Z,99535.00
2023-03-10T05:49:43.332Z,99539.59
2023-03-10T05:52:12.120Z,99534.38
2023-03-10T05:54:40.415Z,99531.78
2023-03-10T05:57:08.730Z,99515.81
2023-03-10T05:59:37.030Z,99512.91
2023-03-10T06:02:05.332Z,99511.72
2023-03-10T06:04:34.308Z,99504.13
2023-03-10T06:07:03.531Z,99499.13
2023-03-10T06:09:33.308Z,99496.19
2023-03-10T06:12:01.933Z,99490.00
2023-03-10T06:14:30.286Z,99480.44
2023-03-10T06:16:58.977Z,99473.69
2023-03-10T06:19:28.391Z,99464.69
2023-03-10T06:21:56.733Z,99453.59
2023-03-10T06:24:25.008Z,99447.59
2023-03-10T06:26:53.290Z,99448.06
2023-03-10T06:29:21.623Z,99442.81
2023-03-10T06:31:50.323Z,99438.69
2023-03-10T06:34:18.691Z,99433.25
2023-03-10T06:36:47.003Z,99429.66
2023-03-10T06:39:15.326Z,99431.44
2023-03-10T06:41:43.621Z,99425.22
2023-03-10T06:44:19.911Z,99426.97
2023-03-10T06:46:48.534Z,99419.66
2023-03-10T06:49:16.852Z,99422.34
2023-03-10T06:51:45.143Z,99416.56
2023-03-10T06:54:13.624Z,99408.28
2023-03-10T06:56:41.961Z,99400.78
2023-03-10T06:59:10.274Z,99392.75
2023-03-10T07:01:38.773Z,99394.25
2023-03-10T07:04:07.268Z,99379.78
2023-03-10T07:06:35.647Z,99378.88
2023-03-10T07:09:04.884Z,99373.06
2023-03-10T07:11:33.599Z,99361.66
2023-03-10T07:14:01.983Z,99365.13
2023-03-10T07:16:30.341Z,99360.06
2023-03-10T07:18:58.671Z,99350.28
2023-03-10T07:21:27.072Z,99340.47
2023-03-10T07:23:55.365Z,99334.81
2023-03-10T07:26:23.825Z,99327.28
2023-03-10T07:28:52.149Z,99320.88
2023-03-10T07:31:20.525Z,99311.63
2023-03-10T07:33:50.507Z,99305.41
2023-03-10T07:36:20.536Z,99309.19
2023-03-10T07:38:49.209Z,99305.63
2023-03-10T07:41:20.171Z,99295.81
2023-03-10T07:43:49.294Z,99295.25
2023-03-10T07:46:17.795Z,99295.09
2023-03-10T07:48:46.458Z,99283.03
2023-03-10T07:51:15.250Z,99270.94
2023-03-10T07:53:43.701Z,99271.16
2023-03-10T07:56:14.021Z,99264.19
2023-03-10T07:58:42.858Z,99262.88
2023-03-10T08:01:19.835Z,99257.75
2023-03-10T08:03:48.423Z,99258.75
2023-03-10T08:06:23.457Z,99253.09
2023-03-10T08:08:53.056Z,99249.50
2023-03-10T08:11:22.366Z,99244.38
2023-03-10T08:13:50.714Z,99242.09
2023-03-10T08:16:21.363Z,99243.22
2023-03-10T08:18:53.075Z,99238.13
2023-03-10T08:21:21.633Z,99232.81
2023-03-10T08:23:49.992Z,99241.31
2023-03-10T08:26:20.224Z,99232.81
2023-03-10T08:28:50.656Z,99228.69
2023-03-10T08:31:21.836Z,99233.78
2023-03-10T08:33:50.640Z,99231.31
2023-03-10T08:36:22.649Z,99221.31
2023-03-10T08:38:55.354Z,99221.31
2023-03-10T08:41:32.426Z,99216.97
2023-03-10T08:44:01.360Z,99211.09
2023-03-10T08:46:32.909Z,99207.72
2023-03-10T08:49:04.508Z,99209.59
2023-03-10T08:51:34.791Z,99211.09
2023-03-10T08:54:04.157Z,99215.44
2023-03-10T08:56:32.934Z,99229.59
2023-03-10T08:59:01.854Z,99220.91
2023-03-10T09:01:33.267Z,99220.34
2023-03-10T09:04:02.966Z,99215.06
2023-03-10T09:06:31.932Z,99210.50
2023-03-10T09:09:00.346Z,99206.94
2023-03-10T09:11:36.985Z,99217.47
2023-03-10T09:14:07.609Z,99207.28
2023-03-10T09:16:36.328Z,99209.88
2023-03-10T09:19:05.107Z,99211.19
2023-03-10T09:21:33.987Z,99210.03
2023-03-10T09:24:03.634Z,99220.38
2023-03-10T09:26:32.435Z,99218.84
2023-03-10T09:29:00.741Z,99209.00
2023-03-10T09:31:35.248Z,99217.28
2023-03-10T09:34:04.227Z,99213.50
2023-03-10T09:36:33.221Z,99205.94
2023-03-10T09:39:02.390Z,99209.84
2023-03-10T09:41:39.767Z,99203.22
2023-03-10T09:44:37.983Z,99203.38
2023-03-10T09:47:11.935Z,99204.84
2023-03-10T09:50:15.346Z,99200.66
2023-03-10T09:52:53.599Z,99200.56
2023-03-10T09:55:31.700Z,99199.97
2023-03-10T09:58:01.541Z,99186.69
2023-03-10T10:00:39.039Z,99199.66
2023-03-10T10:03:16.640Z,99196.22
2023-03-10T10:05:46.503Z,99199.91
2023-03-10T10:08:31.909Z,99202.13
2023-03-10T10:11:02.614Z,99205.09
2023-03-10T10:13:31.990Z,99204.47
2023-03-10T10:16:33.638Z,99201.00
2023-03-10T10:19:15.440Z,99214.47
2023-03-10T10:22:11.557Z,99215.16
2023-03-10T10:24:41.491Z,99214.28
2023-03-10T10:27:09.929Z,99215.72
2023-03-10T10:29:43.201Z,99210.94
2023-03-10T10:32:13.742Z,99218.22
2023-03-10T10:34:50.153Z,99216.28
2023-03-10T10:37:30.411Z,99222.03
2023-03-10T10:40:01.268Z,99221.41
2023-03-10T10:42:35.055Z,99222.81
2023-03-10T10:45:08.902Z,99232.91
2023-03-10T10:47:47.280Z,99225.84
2023-03-10T10:50:30.251Z,99224.97
2023-03-10T10:53:35.301Z,99233.84
2023-03-10T10:56:15.415Z,99233.72
2023-03-10T10:59:02.187Z,99240.56
2023-03-10T11:01:49.756Z,99238.91
2023-03-10T11:04:18.575Z,99230.88
2023-03-10T11:06:47.111Z,99234.34
2023-03-10T11:09:21.361Z,99235.44
2023-03-10T11:12:31.291Z,99236.63
2023-03-10T11:15:24.658Z,99234.97
2023-03-10T11:18:20.234Z,99241.78
2023-03-10T11:21:08.642Z,99255.47
2023-03-10T11:24:06.790Z,99263.56
2023-03-10T11:27:00.404Z,99267.00
2023-03-10T11:29:34.644Z,99267.56
2023-03-10T11:32:09.007Z,99269.69
2023-03-10T11:34:43.453Z,99271.31
2023-03-10T11:37:52.867Z,99274.94
2023-03-10T11:40:29.445Z,99278.06
2023-03-10T11:43:17.537Z,99286.56
2023-03-10T11:45:45.786Z,99283.59
2023-03-10T11:48:57.927Z,99286.47
2023-03-10T11:51:29.913Z,99288.59
2023-03-10T11:54:06.371Z,99295.81
2023-03-10T11:56:34.690Z,99288.94
2023-03-10T11:59:18.255Z,99288.47
2023-03-10T12:01:49.840Z,99297.22
2023-03-10T12:04:38.882Z,99300.81
2023-03-10T12:07:16.396Z,99301.66
2023-03-10T12:09:51.229Z,99308.84
2023-03-10T12:12:33.248Z,99308.88
2023-03-10T12:15:06.967Z,99319.66
2023-03-10T12:17:35.360Z,99323.28
2023-03-10T12:20:21.731Z,99320.00
2023-03-10T12:23:01.606Z,99324.63
2023-03-10T12:25:34.158Z,99319.31
2023-03-10T12:28:17.684Z,99334.16
2023-03-10T12:30:57.632Z,99342.88
2023-03-10T12:33:32.030Z,99346.47
2023-03-10T12:36:21.343Z,99349.34
2023-03-10T12:39:00.699Z,99343.00
2023-03-10T12:41:28.927Z,99351.41
2023-03-10T12:44:17.685Z,99356.56
2023-03-10T12:47:02.004Z,99359.41
2023-03-10T12:49:36.293Z,99360.97
2023-03-10T12:52:19.624Z,99369.44
2023-03-10T12:55:15.403Z,99365.16
2023-03-10T12:58:23.687Z,99365.69
2023-03-10T13:01:07.078Z,99369.81
2023-03-10T13:03:48.544Z,99370.06
2023-03-10T13:06:21.708Z,99369.59
2023-03-10T13:08:52.342Z,99367.06
2023-03-10T13:11:41.221Z,99373.69
2023-03-10T13:14:16.144Z,99373.19
2023-03-10T13:16:58.857Z,99375.50
2023-03-10T13:19:29.679Z,99385.69
2023-03-10T13:21:58.273Z,99390.53
2023-03-10T13:24:31.007Z,99398.19
2023-03-10T13:27:17.996Z,99402.28
2023-03-10T13:30:13.819Z,99394.38
2023-03-10T13:35:38.260Z,99400.53
2023-03-10T13:38:22.662Z,99411.28
2023-03-10T13:40:58.102Z,99410.22
2023-03-10T13:43:46.338Z,99413.31
2023-03-10T13:46:19.394Z,99421.97
2023-03-10T13:48:48.953Z,99417.41
2023-03-10T13:51:24.032Z,99424.81
2023-03-10T13:53:55.929Z,99429.91
2023-03-10T13:56:26.109Z,99430.19
2023-03-10T13:58:59.325Z,99429.69
2023-03-10T14:01:31.583Z,99440.66
2023-03-10T14:04:09.410Z,99439.34
2023-03-10T14:06:38.319Z,99447.25
2023-03-10T14:09:24.370Z,99457.22
2023-03-10T14:11:53.130Z,99451.59
2023-03-10T14:14:33.268Z,99457.97
2023-03-10T14:17:07.560Z,99457.41
2023-03-10T14:19:45.041Z,99459.72
2023-03-10T14:22:44.445Z,99465.06
2023-03-10T14:25:21.359Z,99468.38
2023-03-10T14:27:59.789Z,99485.72
2023-03-10T14:30:33.190Z,99481.88
2023-03-10T14:33:02.991Z,99486.47
2023-03-10T14:35:31.577Z,99480.34
2023-03-10T14:37:59.880Z,99482.66
2023-03-10T14:40:28.298Z,99491.56
2023-03-10T14:43:02.379Z,99490.03
2023-03-10T14:45:36.519Z,99491.78
2023-03-10T14:48:26.699Z,99502.22
2023-03-10T14:50:56.935Z,99499.94
2023-03-10T14:53:27.647Z,99507.31
2023-03-10T14:55:58.336Z,99507.81
2023-03-10T14:58:32.632Z,99499.66
2023-03-10T15:01:02.101Z,99499.41
2023-03-10T15:03:30.453Z,99499.91
2023-03-10T15:05:58.951Z,99494.81
2023-03-10T15:08:29.862Z,99504.50
2023-03-10T15:10:58.924Z,99496.59
2023-03-10T15:13:27.280Z,99499.91
2023-03-10T15:15:55.745Z,99503.97
2023-03-10T15:18:27.879Z,99498.13
2023-03-10T15:21:01.243Z,99500.66
2023-03-10T15:23:30.857Z,99499.63
2023-03-10T15:26:00.277Z,99507.75
2023-03-10T15:28:28.624Z,99496.78
2023-03-10T15:30:57.442Z,99490.44
2023-03-10T15:33:25.901Z,99500.88
2023-03-10T15:35:55.206Z,99491.16
2023-03-10T15:38:23.813Z,99495.72
2023-03-10T15:40:52.204Z,99498.78
2023-03-10T15:43:20.521Z,99500.81
2023-03-10T15:45:51.146Z,99496.72
2023-03-10T15:48:19.698Z,99501.06
2023-03-10T15:50:48.152Z,99498.75
2023-03-10T15:53:16.684Z,99505.63
2023-03-10T15:55:44.972Z,99506.13
2023-03-10T15:58:14.016Z,99507.41
2023-03-10T16:00:44.702Z,99511.19
2023-03-10T16:03:18.160Z,99512.44
2023-03-10T16:05:50.212Z,99501.75
2023-03-10T16:08:20.074Z,99507.84
2023-03-10T16:10:55.880Z,99507.84
2023-03-10T16:13:25.820Z,99504.28
2023-03-10T16:15:54.161Z,99505.06
2023-03-10T16:18:22.579Z,99496.66
2023-03-10T16:21:00.708Z,99498.69
2023-03-10T16:23:31.701Z,99496.66
2023-03-10T16:26:07.239Z,99500.22
2023-03-10T16:28:37.685Z,99489.03
2023-03-10T16:31:07.451Z,99495.38
2023-03-10T16:33:36.052Z,99495.13
2023-03-10T16:36:07.021Z,99493.59
2023-03-10T16:38:36.721Z,99490.03
2023-03-10T16:41:05.270Z,99487.72
2023-03-10T16:43:34.504Z,99489.78
2023-03-10T16:46:27.131Z,99487.47
2023-03-10T16:48:56.371Z,99487.22
2023-03-10T16:51:27.121Z,99477.03
2023-03-10T16:54:00.928Z,99472.44
2023-03-10T16:56:31.018Z,99476.00
2023-03-10T16:58:59.881Z,99478.06
2023-03-10T17:01:28.425Z,99478.06
2023-03-10T17:03:57.487Z,99479.81
2023-03-10T17:06:32.761Z,99487.94
2023-03-10T17:09:02.288Z,99476.50
2023-03-10T17:11:33.401Z,99480.56
2023-03-10T17:14:05.083Z,99481.06
2023-03-10T17:16:35.108Z,99477.50
2023-03-10T17:19:06.485Z,99482.84
2023-03-10T17:21:40.839Z,99472.16
2023-03-10T17:24:09.736Z,99471.84
2023-03-10T17:26:38.583Z,99470.31
2023-03-10T17:29:07.210Z,99473.63
2023-03-10T17:31:35.698Z,99470.81
2023-03-10T17:34:06.701Z,99473.63
2023-03-10T17:36:35.294Z,99477.69
2023-03-10T17:39:05.566Z,99478.69
2023-03-10T17:41:36.109Z,99483.25
2023-03-10T17:44:07.474Z,99484.53
2023-03-10T17:46:35.876Z,99489.34
2023-03-10T17:49:04.377Z,99487.81
2023-03-10T17:51:32.781Z,99481.47
2023-03-10T17:54:02.630Z,99483.50
2023-03-10T17:56:31.219Z,99482.72
2023-03-10T17:58:59.908Z,99482.47
2023-03-10T18:01:30.595Z,99486.53
2023-03-10T18:04:00.855Z,99484.75
2023-03-10T18:06:34.877Z,99483.97
2023-03-10T18:09:06.333Z,99473.28
2023-03-10T18:11:35.241Z,99472.53
2023-03-10T18:14:04.169Z,99487.78
2023-03-10T18:16:36.739Z,99474.56
2023-03-10T18:19:05.341Z,99468.97
2023-03-10T18:21:33.792Z,99472.25
2023-03-10T18:24:02.167Z,99466.66
2023-03-10T18:26:34.740Z,99459.53
2023-03-10T18:29:03.115Z,99465.91
2023-03-10T18:31:33.794Z,99458.28
2023-03-10T18:34:02.807Z,99461.56
2023-03-10T18:36:31.959Z,99455.97
2023-03-10T18:39:00.999Z,99455.16
2023-03-10T18:41:31.710Z,99454.38
2023-03-10T18:44:01.432Z,99448.03
2023-03-10T18:46:30.595Z,99447.25
2023-03-10T18:48:59.341Z,99448.53
2023-03-10T18:51:29.408Z,99437.84
2023-03-10T18:53:57.851Z,99442.66
2023-03-10T18:56:29.763Z,99437.56
2023-03-10T18:58:58.436Z,99439.59
2023-03-10T19:01:27.824Z,99437.31
2023-03-10T19:03:56.153Z,99429.44
2023-03-10T19:06:24.457Z,99426.38
2023-03-10T19:08:53.715Z,99422.81
2023-03-10T19:11:25.105Z,99425.59
2023-03-10T19:13:53.525Z,99416.44
2023-03-10T19:16:22.476Z,99416.19
2023-03-10T19:18:50.882Z,99414.66
2023-03-10T19:21:21.354Z,99410.81
2023-03-10T19:23:51.231Z,99411.06
2023-03-10T19:26:19.685Z,99404.69
2023-03-10T19:28:47.967Z,99402.41
2023-03-10T19:31:17.635Z,99398.09
2023-03-10T19:33:45.956Z,99400.13
2023-03-10T19:36:15.299Z,99403.38
2023-03-10T19:38:45.389Z,99410.25
2023-03-10T19:41:18.599Z,99405.91
2023-03-10T19:43:50.060Z,99400.06
2023-03-10T19:46:19.772Z,99399.78
2023-03-10T19:48:48.334Z,99402.31
2023-03-10T19:51:25.611Z,99400.28
2023-03-10T19:53:55.508Z,99404.09
2023-03-10T19:56:26.374Z,99398.22
2023-03-10T19:58:54.756Z,99393.91
2023-03-10T20:01:27.074Z,99399.22
2023-03-10T20:04:02.039Z,99398.97
2023-03-10T20:06:30.582Z,99389.81
2023-03-10T20:08:58.932Z,99386.00
2023-03-10T20:11:27.467Z,99390.81
2023-03-10T20:13:55.864Z,99397.94
2023-03-10T20:16:24.811Z,99391.56
2023-03-10T20:18:53.289Z,99392.34
2023-03-10T20:21:21.632Z,99386.50
2023-03-10T20:23:50.060Z,99384.47
2023-03-10T20:26:19.280Z,99383.44
2023-03-10T20:28:49.563Z,99386.22
2023-03-10T20:31:20.423Z,99393.06
2023-03-10T20:33:49.367Z,99399.44
2023-03-10T20:36:17.729Z,99391.53
2023-03-10T20:38:47.744Z,99390.78
2023-03-10T20:41:18.083Z,99385.19
2023-03-10T20:43:46.882Z,99385.66
2023-03-10T20:46:18.468Z,99390.97
2023-03-10T20:48:48.981Z,99394.28
2023-03-10T20:51:18.965Z,99388.91
2023-03-10T20:53:48.034Z,99386.63
2023-03-10T20:56:17.504Z,99392.72
2023-03-10T20:58:45.850Z,99386.59
2023-03-10T21:01:20.006Z,99384.28
2023-03-10T21:03:48.951Z,99384.03
2023-03-10T21:06:17.271Z,99387.28
2023-03-10T21:08:45.758Z,99383.47
2023-03-10T21:11:14.053Z,99383.97
2023-03-10T21:13:42.544Z,99391.56
2023-03-10T21:16:11.661Z,99393.59
2023-03-10T21:18:40.762Z,99388.50
2023-03-10T21:21:10.469Z,99392.25
2023-03-10T21:23:39.562Z,99391.00
2023-03-10T21:26:18.273Z,99390.25
2023-03-10T21:28:47.012Z,99395.06
2023-03-10T21:31:16.334Z,99393.53
2023-03-10T21:33:44.696Z,99395.28
2023-03-10T21:36:16.606Z,99397.31
2023-03-10T21:38:44.994Z,99406.69
2023-03-10T21:41:19.828Z,99396.78
2023-03-10T21:43:48.960Z,99402.84
2023-03-10T21:46:17.529Z,99403.34
2023-03-10T21:48:45.865Z,99410.19
2023-03-10T21:51:16.156Z,99413.00
2023-03-10T21:53:44.582Z,99416.78
2023-03-10T21:56:13.500Z,99411.69
2023-03-10T21:58:41.807Z,99418.25
2023-03-10T22:01:10.167Z,99416.72
2023-03-10T22:03:38.550Z,99424.84
2023-03-10T22:06:07.316Z,99427.81
2023-03-10T22:08:37.607Z,99429.56
2023-03-10T22:11:07.889Z,99451.16
2023-03-10T22:13:38.231Z,99450.88
2023-03-10T22:16:09.020Z,99462.53
2023-03-10T22:18:37.905Z,99461.28
2023-03-10T22:21:06.507Z,99469.66
2023-03-10T22:23:34.809Z,99476.75
2023-03-10T22:26:03.174Z,99467.91
2023-03-10T22:28:31.485Z,99470.69
2023-03-10T22:30:59.865Z,99468.38
2023-03-10T22:33:28.183Z,99472.72
2023-03-10T22:35:56.514Z,99466.09
2023-03-10T22:38:24.856Z,99473.97
2023-03-10T22:40:53.155Z,99471.94
2023-03-10T22:43:21.447Z,99478.28
2023-03-10T22:45:49.812Z,99469.44
2023-03-10T22:48:18.105Z,99472.22
2023-03-10T22:50:47.615Z,99470.19
2023-03-10T22:53:19.188Z,99472.97
2023-03-10T22:55:49.319Z,99475.78
2023-03-10T22:58:17.582Z,99476.53
2023-03-10T23:00:47.266Z,99487.72
2023-03-10T23:03:16.343Z,99489.75
2023-03-10T23:05:46.023Z,99500.13
2023-03-10T23:08:14.836Z,99500.91
2023-03-10T23:10:43.731Z,99500.13
2023-03-10T23:13:16.362Z,99502.94
2023-03-10T23:15:45.807Z,99504.19
2023-03-10T23:18:14.324Z,99512.56
2023-03-10T23:20:45.797Z,99510.53
2023-03-10T23:23:19.239Z,99511.03
2023-03-10T23:25:51.892Z,99517.38
2023-03-10T23:28:21.883Z,99513.81
2023-03-10T23:30:51.279Z,99516.63
2023-03-10T23:33:23.314Z,99519.41
2023-03-10T23:35:54.693Z,99520.19
2023-03-10T23:38:25.234Z,99524.22
2023-03-10T23:40:54.691Z,99522.19
2023-03-10T23:43:23.330Z,99529.31
2023-03-10T23:45:51.767Z,99538.94
2023-03-10T23:48:21.328Z,99548.09
2023-03-10T23:50:50.190Z,99552.41
2023-03-10T23:53:21.600Z,99549.13
2023-03-10T23:55:50.806Z,99547.59
2023-03-10T23:58:20.531Z,99555.75
